»·PEaware :: N16RD KFUL-L70

N16RD :: KFUL-L70

FLIGHT INFORMATION

Flight Status: Arrived
Operator: Privately registered:
United States
More flights under this callsign
Pilot: Brett B. (12105)
Aircraft: CESSNA 172 SKYHAWK
(C172)
More flights by this aircraft type
Origin: KFUL Fullerton Mun
United States
Destination: L70 Agua Dulce
United States
More flights between these airports :: More routes between these airports
Route: +
File this flight plan on PilotEdge
Remarks:
Altitude:
(Current/Filed)
8,500ft
Speed:
(Current/Filed)
115kts
Departed: 13-Sep-17 09:52 PM
Arrived: 13-Sep-17 10:24 PM
Distance/Time
Traveled:
49nm/0:31
Distance/Time
To Go:
Arrived

Flight Plot

Page will automatically refresh every two minutes.

Flight plan parsing failed; only flown route is shown


Map Options




Map Legend


Flown Route
Filed Route
Departure Airport
Arrival Airport
Navaid (VOR, NDB)
Fix

Horizontal Profiles

Position Reports

Time Latitude Longitude Heading Altitude Ground
Speed
13-Sep-17 21:51 33.871517 -117.978658 78 99ft 0kts
13-Sep-17 21:52 33.871517 -117.978658 78 99ft 0kts
13-Sep-17 21:53 33.871517 -117.978658 78 99ft 0kts
13-Sep-17 21:54 33.871845 -117.978005 66 99ft 20kts
13-Sep-17 21:55 33.872921 -117.975025 264 99ft 7kts
13-Sep-17 21:56 33.868606 -117.993217 278 567ft 74kts
13-Sep-17 21:57 33.887574 -118.004536 355 1242ft 87kts
13-Sep-17 21:58 33.909565 -117.997082 3 1906ft 79kts
13-Sep-17 21:59 33.931301 -117.993933 2 2475ft 78kts
13-Sep-17 22:00 33.952483 -117.990883 2 3043ft 75kts
13-Sep-17 22:01 33.972841 -117.988472 2 3591ft 70kts
13-Sep-17 22:02 33.991849 -117.985587 1 4046ft 74kts
13-Sep-17 22:03 34.019175 -117.987704 352 4008ft 113kts
13-Sep-17 22:04 34.051037 -117.990709 352 4001ft 115kts
13-Sep-17 22:05 34.081032 -117.999761 312 4015ft 111kts
13-Sep-17 22:06 34.102851 -118.025140 313 3997ft 107kts
13-Sep-17 22:07 34.124869 -118.044564 322 4393ft 90kts
13-Sep-17 22:08 34.144500 -118.061346 322 4852ft 82kts
13-Sep-17 22:09 34.162464 -118.076650 322 5306ft 75kts
13-Sep-17 22:10 34.178863 -118.090363 322 5739ft 68kts
13-Sep-17 22:11 34.195175 -118.103987 322 6118ft 69kts
13-Sep-17 22:12 34.210400 -118.116527 321 6504ft 63kts
13-Sep-17 22:13 34.232186 -118.135656 322 6360ft 108kts
13-Sep-17 22:14 34.257342 -118.151921 332 6525ft 103kts
13-Sep-17 22:15 34.283698 -118.168222 332 6529ft 107kts
13-Sep-17 22:16 34.310287 -118.184742 332 6533ft 107kts
13-Sep-17 22:17 34.336884 -118.201271 332 6533ft 107kts
13-Sep-17 22:18 34.363469 -118.217797 332 6533ft 107kts
13-Sep-17 22:19 34.390157 -118.234411 332 6533ft 107kts
13-Sep-17 22:20 34.418840 -118.252296 332 5981ft 123kts
13-Sep-17 22:21 34.447716 -118.270305 332 5263ft 106kts
13-Sep-17 22:22 34.471204 -118.284954 332 4618ft 99kts
13-Sep-17 22:23 34.493382 -118.307762 290 3337ft 113kts
13-Sep-17 22:24 34.501597 -118.321208 78 2693ft 76kts
13-Sep-17 22:25 34.513923 -118.298699 47 3018ft 79kts
13-Sep-17 22:26 34.515544 -118.284015 237 3508ft 82kts
13-Sep-17 22:27 34.505773 -118.309475 232 2616ft 66kts
13-Sep-17 22:28 34.503349 -118.314451 322 2605ft 0kts
13-Sep-17 22:29 34.503349 -118.314451 322 2605ft 0kts
13-Sep-17 22:30 34.503349 -118.314451 322 2605ft 0kts
13-Sep-17 22:31 34.503349 -118.314451 322 2605ft 0kts
13-Sep-17 22:32 34.503349 -118.314451 322 2605ft 0kts
13-Sep-17 22:33 34.503349 -118.314451 322 2605ft 0kts
13-Sep-17 22:34 34.504511 -118.312287 54 2605ft 29kts
13-Sep-17 22:35 34.504931 -118.310760 233 2605ft 48kts
13-Sep-17 22:36 34.491621 -118.331095 226 2927ft 83kts
13-Sep-17 22:37 34.472024 -118.346736 207 3463ft 86kts
13-Sep-17 22:38 34.456482 -118.369888 244 3763ft 100kts
13-Sep-17 22:39 34.448652 -118.403064 260 3977ft 97kts
13-Sep-17 22:40 34.445009 -118.433455 261 4430ft 86kts
13-Sep-17 22:41 34.429009 -118.567256 261 4496ft 105kts
13-Sep-17 22:42 34.413254 -118.706667 259 4500ft 104kts

Navigation Log

Ident Type
Flight plan parsing failed, navigation log unavailable